createdAt,value
2023-05-05T00:00:52.028Z,98.60
2023-05-05T00:01:54.415Z,98.60
2023-05-05T00:02:58.928Z,98.90
2023-05-05T00:04:02.078Z,99.00
2023-05-05T00:05:04.909Z,98.90
2023-05-05T00:06:08.387Z,98.70
2023-05-05T00:07:11.861Z,98.90
2023-05-05T00:08:14.252Z,98.90
2023-05-05T00:09:16.695Z,98.80
2023-05-05T00:10:19.236Z,98.40
2023-05-05T00:11:21.569Z,98.40
2023-05-05T00:12:24.935Z,98.50
2023-05-05T00:13:28.028Z,98.60
2023-05-05T00:14:31.194Z,98.70
2023-05-05T00:15:36.171Z,98.70
2023-05-05T00:16:38.953Z,98.70
2023-05-05T00:17:41.832Z,98.70
2023-05-05T00:18:45.093Z,98.70
2023-05-05T00:19:47.576Z,98.60
2023-05-05T00:20:50.128Z,98.90
2023-05-05T00:21:52.647Z,98.80
2023-05-05T00:22:55.148Z,98.80
2023-05-05T00:23:57.626Z,98.80
2023-05-05T00:25:00.031Z,98.70
2023-05-05T00:26:02.834Z,98.90
2023-05-05T00:27:05.254Z,98.90
2023-05-05T00:28:07.649Z,99.00
2023-05-05T00:29:10.095Z,99.30
2023-05-05T00:30:13.900Z,99.30
2023-05-05T00:31:17.093Z,99.30
2023-05-05T00:32:19.583Z,99.40
2023-05-05T00:33:22.458Z,99.40
2023-05-05T00:34:25.175Z,99.30
2023-05-05T00:35:27.700Z,99.20
2023-05-05T00:36:30.642Z,99.40
2023-05-05T00:37:34.264Z,99.40
2023-05-05T00:38:36.729Z,99.40
2023-05-05T00:39:38.972Z,99.30
2023-05-05T00:40:41.673Z,99.20
2023-05-05T00:41:44.104Z,99.30
2023-05-05T00:42:49.487Z,99.10
2023-05-05T00:43:52.826Z,98.90
2023-05-05T00:44:56.377Z,98.90
2023-05-05T00:46:21.968Z,99.00
2023-05-05T00:47:25.448Z,99.20
2023-05-05T00:48:30.720Z,99.10
2023-05-05T00:49:35.158Z,99.30
2023-05-05T00:50:38.383Z,99.30
2023-05-05T00:51:42.295Z,99.10
2023-05-05T00:52:45.309Z,99.40
2023-05-05T00:53:49.023Z,99.10
2023-05-05T00:54:51.784Z,99.20
2023-05-05T00:55:55.083Z,99.10
2023-05-05T00:56:57.611Z,99.20
2023-05-05T00:58:04.495Z,99.20
2023-05-05T00:59:06.729Z,99.00
2023-05-05T01:00:10.029Z,99.30
2023-05-05T01:01:13.124Z,99.30
2023-05-05T01:02:15.666Z,99.30
2023-05-05T01:03:18.113Z,99.30
2023-05-05T01:04:20.508Z,99.50
2023-05-05T01:05:26.089Z,99.90
2023-05-05T01:06:47.376Z,99.90
2023-05-05T01:08:27.259Z,99.80
2023-05-05T01:09:48.170Z,99.60
2023-05-05T01:10:58.206Z,99.80
2023-05-05T01:12:36.759Z,99.70
2023-05-05T01:14:11.607Z,99.80
2023-05-05T01:15:36.336Z,99.90
2023-05-05T01:16:46.053Z,99.90
2023-05-05T01:18:00.289Z,99.90
2023-05-05T01:19:37.106Z,99.90
2023-05-05T01:21:29.615Z,99.90
2023-05-05T01:22:40.929Z,99.90
2023-05-05T01:24:11.218Z,99.90
2023-05-05T01:25:41.860Z,99.90
2023-05-05T01:27:09.649Z,99.90
2023-05-05T01:28:55.917Z,99.90
2023-05-05T01:29:58.497Z,99.90
2023-05-05T01:31:20.765Z,99.90
2023-05-05T01:32:30.367Z,99.90
2023-05-05T01:33:46.103Z,99.90
2023-05-05T01:35:03.270Z,99.90
2023-05-05T01:36:14.156Z,99.90
2023-05-05T01:37:22.732Z,99.90
2023-05-05T01:38:45.118Z,99.90
2023-05-05T01:39:51.702Z,99.90
2023-05-05T01:41:23.995Z,99.90
2023-05-05T01:42:27.156Z,99.90
2023-05-05T01:43:33.446Z,99.90
2023-05-05T01:44:36.869Z,99.90
2023-05-05T01:45:42.487Z,99.90
2023-05-05T01:46:44.207Z,99.90
2023-05-05T01:47:47.608Z,99.90
2023-05-05T01:48:50.925Z,99.90
2023-05-05T01:49:53.400Z,99.90
2023-05-05T01:50:55.763Z,99.90
2023-05-05T01:51:58.333Z,99.90
2023-05-05T01:53:01.587Z,99.90
2023-05-05T01:54:08.404Z,99.90
2023-05-05T01:55:11.581Z,99.90
2023-05-05T01:56:15.389Z,99.90
2023-05-05T01:57:18.346Z,99.90
2023-05-05T01:58:22.676Z,99.90
2023-05-05T01:59:28.514Z,99.90
2023-05-05T02:00:31.760Z,99.90
2023-05-05T02:01:37.628Z,99.90
2023-05-05T02:02:42.093Z,99.90
2023-05-05T02:03:47.060Z,99.90
2023-05-05T02:04:51.860Z,99.90
2023-05-05T02:05:54.770Z,99.90
2023-05-05T02:06:58.112Z,99.90
2023-05-05T02:08:01.265Z,99.90
2023-05-05T02:09:03.661Z,99.90
2023-05-05T02:10:07.204Z,99.90
2023-05-05T02:11:11.456Z,99.90
2023-05-05T02:12:14.045Z,99.90
2023-05-05T02:13:17.096Z,99.90
2023-05-05T02:14:21.060Z,99.90
2023-05-05T02:15:25.028Z,99.90
2023-05-05T02:16:27.930Z,99.90
2023-05-05T02:17:30.872Z,99.90
2023-05-05T02:18:35.703Z,99.90
2023-05-05T02:19:41.820Z,99.90
2023-05-05T02:20:43.938Z,99.90
2023-05-05T02:21:45.738Z,99.90
2023-05-05T02:22:47.815Z,99.90
2023-05-05T02:23:51.829Z,99.90
2023-05-05T02:24:54.515Z,99.90
2023-05-05T02:26:03.589Z,99.90
2023-05-05T02:27:07.361Z,99.90
2023-05-05T02:28:18.397Z,99.90
2023-05-05T02:29:28.407Z,99.90
2023-05-05T02:30:35.133Z,99.90
2023-05-05T02:31:44.023Z,99.90
2023-05-05T02:32:53.296Z,99.90
2023-05-05T02:33:57.952Z,99.90
2023-05-05T02:35:10.860Z,99.90
2023-05-05T02:36:19.165Z,99.90
2023-05-05T02:37:26.540Z,99.90
2023-05-05T02:38:29.405Z,99.90
2023-05-05T02:39:35.209Z,99.90
2023-05-05T02:40:38.536Z,99.90
2023-05-05T02:41:42.867Z,99.90
2023-05-05T02:42:47.754Z,99.90
2023-05-05T02:43:51.135Z,99.90
2023-05-05T02:44:55.542Z,99.90
2023-05-05T02:45:57.261Z,99.90
2023-05-05T02:46:59.122Z,99.90
2023-05-05T02:48:04.501Z,99.90
2023-05-05T02:49:06.351Z,99.90
2023-05-05T02:50:09.374Z,99.90
2023-05-05T02:51:11.333Z,99.90
2023-05-05T02:52:13.161Z,99.90
2023-05-05T02:53:15.124Z,99.90
2023-05-05T02:54:17.208Z,99.90
2023-05-05T02:55:19.162Z,99.90
2023-05-05T02:56:44.100Z,99.90
2023-05-05T02:58:04.309Z,99.90
2023-05-05T02:59:18.629Z,99.90
2023-05-05T03:00:54.021Z,99.90
2023-05-05T03:01:59.895Z,99.90
2023-05-05T03:03:17.698Z,99.90
2023-05-05T03:04:24.080Z,99.90
2023-05-05T03:05:30.180Z,99.90
2023-05-05T03:06:39.574Z,99.90
2023-05-05T03:07:49.730Z,99.90
2023-05-05T03:09:13.158Z,99.90
2023-05-05T03:10:20.187Z,99.90
2023-05-05T03:11:50.334Z,99.90
2023-05-05T03:13:01.413Z,99.90
2023-05-05T03:14:10.788Z,99.90
2023-05-05T03:15:14.641Z,99.90
2023-05-05T03:16:18.444Z,99.90
2023-05-05T03:17:21.587Z,99.90
2023-05-05T03:18:25.116Z,99.90
2023-05-05T03:19:28.431Z,99.90
2023-05-05T03:20:30.699Z,99.90
2023-05-05T03:21:32.812Z,99.90
2023-05-05T03:22:38.665Z,99.90
2023-05-05T03:23:40.809Z,99.90
2023-05-05T03:24:49.338Z,99.90
2023-05-05T03:25:51.942Z,99.90
2023-05-05T03:26:53.958Z,99.90
2023-05-05T03:27:55.860Z,99.90
2023-05-05T03:28:57.548Z,99.90
2023-05-05T03:29:59.321Z,99.90
2023-05-05T03:31:01.228Z,99.90
2023-05-05T03:32:03.117Z,99.90
2023-05-05T03:33:04.978Z,99.90
2023-05-05T03:34:07.282Z,99.90
2023-05-05T03:35:09.397Z,99.90
2023-05-05T03:36:11.174Z,99.90
2023-05-05T03:37:12.907Z,99.90
2023-05-05T03:38:14.654Z,99.90
2023-05-05T03:39:16.497Z,99.90
2023-05-05T03:40:18.250Z,99.90
2023-05-05T03:41:24.547Z,99.90
2023-05-05T03:42:26.283Z,99.90
2023-05-05T03:43:28.009Z,99.90
2023-05-05T03:44:29.760Z,99.90
2023-05-05T03:45:31.533Z,99.90
2023-05-05T03:46:33.420Z,99.90
2023-05-05T03:47:35.243Z,99.90
2023-05-05T03:48:37.125Z,99.90
2023-05-05T03:49:38.889Z,99.90
2023-05-05T03:50:40.657Z,99.90
2023-05-05T03:51:42.534Z,99.90
2023-05-05T03:52:44.328Z,99.90
2023-05-05T03:53:46.645Z,99.90
2023-05-05T03:54:48.382Z,99.90
2023-05-05T03:55:50.368Z,99.90
2023-05-05T03:56:52.164Z,99.90
2023-05-05T03:57:54.024Z,99.90
2023-05-05T03:58:55.749Z,99.90
2023-05-05T03:59:57.568Z,99.90
2023-05-05T04:00:59.366Z,99.90
2023-05-05T04:02:01.228Z,99.90
2023-05-05T04:03:03.210Z,99.90
2023-05-05T04:04:05.123Z,99.90
2023-05-05T04:05:07.116Z,99.90
2023-05-05T04:06:08.899Z,99.90
2023-05-05T04:07:11.197Z,99.90
2023-05-05T04:08:13.034Z,99.90
2023-05-05T04:09:14.965Z,99.90
2023-05-05T04:10:19.973Z,99.90
2023-05-05T04:11:22.005Z,99.90
2023-05-05T04:12:23.800Z,99.90
2023-05-05T04:13:25.555Z,99.90
2023-05-05T04:14:27.497Z,99.90
2023-05-05T04:15:29.220Z,99.90
2023-05-05T04:16:31.133Z,99.90
2023-05-05T04:17:32.967Z,99.90
2023-05-05T04:18:34.916Z,99.90
2023-05-05T04:19:36.632Z,99.90
2023-05-05T04:20:38.386Z,99.90
2023-05-05T04:21:40.957Z,99.90
2023-05-05T04:22:43.595Z,99.90
2023-05-05T04:23:45.437Z,99.90
2023-05-05T04:24:47.569Z,99.90
2023-05-05T04:25:49.288Z,99.90
2023-05-05T04:26:52.770Z,99.90
2023-05-05T04:27:54.502Z,99.90
2023-05-05T04:28:56.262Z,99.90
2023-05-05T04:29:58.023Z,99.90
2023-05-05T04:31:01.152Z,99.90
2023-05-05T04:32:03.078Z,99.90
2023-05-05T04:33:05.141Z,99.90
2023-05-05T04:34:06.939Z,99.90
2023-05-05T04:35:08.783Z,99.90
2023-05-05T04:36:10.570Z,99.90
2023-05-05T04:37:12.574Z,99.90
2023-05-05T04:38:14.384Z,99.90
2023-05-05T04:39:16.122Z,99.90
2023-05-05T04:40:17.992Z,99.90
2023-05-05T04:41:19.700Z,99.90
2023-05-05T04:42:21.445Z,99.90
2023-05-05T04:43:23.253Z,99.90
2023-05-05T04:44:24.977Z,99.90
2023-05-05T04:45:26.709Z,99.90
2023-05-05T04:46:28.521Z,99.90
2023-05-05T04:47:30.349Z,99.90
2023-05-05T04:48:32.153Z,99.90
2023-05-05T04:49:33.950Z,99.90
2023-05-05T04:50:37.613Z,99.90
2023-05-05T04:51:42.641Z,99.90
2023-05-05T04:52:44.492Z,99.90
2023-05-05T04:53:46.541Z,99.90
2023-05-05T04:54:48.522Z,99.90
2023-05-05T04:55:50.375Z,99.90
2023-05-05T04:56:52.389Z,99.90
2023-05-05T04:57:54.208Z,99.90
2023-05-05T04:58:55.965Z,99.90
2023-05-05T04:59:59.470Z,99.90
2023-05-05T05:01:01.247Z,99.90
2023-05-05T05:02:03.264Z,99.90
2023-05-05T05:03:05.660Z,99.90
2023-05-05T05:04:09.074Z,99.90
2023-05-05T05:05:11.014Z,99.90
2023-05-05T05:06:12.723Z,99.90
2023-05-05T05:07:17.364Z,99.90
2023-05-05T05:08:19.600Z,99.90
2023-05-05T05:09:21.435Z,99.90
2023-05-05T05:10:23.284Z,99.90
2023-05-05T05:11:25.112Z,99.90
2023-05-05T05:12:26.881Z,99.90
2023-05-05T05:13:28.626Z,99.90
2023-05-05T05:14:30.532Z,99.90
2023-05-05T05:15:32.375Z,99.90
2023-05-05T05:16:34.351Z,99.90
2023-05-05T05:17:36.271Z,99.90
2023-05-05T05:18:38.126Z,99.90
2023-05-05T05:19:39.861Z,99.90
2023-05-05T05:20:41.656Z,99.90
2023-05-05T05:21:43.370Z,99.90
2023-05-05T05:22:45.213Z,99.90
2023-05-05T05:23:47.381Z,99.90
2023-05-05T05:24:49.153Z,99.90
2023-05-05T05:25:50.967Z,99.90
2023-05-05T05:26:52.769Z,99.90
2023-05-05T05:28:06.100Z,99.90
2023-05-05T05:29:11.082Z,99.90
2023-05-05T05:30:13.091Z,99.90
2023-05-05T05:31:14.805Z,99.90
2023-05-05T05:32:16.686Z,99.90
2023-05-05T05:33:18.892Z,99.90
2023-05-05T05:34:20.733Z,99.90
2023-05-05T05:35:22.697Z,99.90
2023-05-05T05:36:25.236Z,99.90
2023-05-05T05:37:31.029Z,99.90
2023-05-05T05:38:33.320Z,99.90
2023-05-05T05:39:35.118Z,99.90
2023-05-05T05:40:37.117Z,99.90
2023-05-05T05:41:41.198Z,99.90
2023-05-05T05:42:43.065Z,99.90
2023-05-05T05:43:44.834Z,99.90
2023-05-05T05:44:46.695Z,99.90
2023-05-05T05:45:48.479Z,99.90
2023-05-05T05:46:50.311Z,99.90
2023-05-05T05:47:52.094Z,99.90
2023-05-05T05:48:53.892Z,99.90
2023-05-05T05:49:55.657Z,99.90
2023-05-05T05:50:57.467Z,99.90
2023-05-05T05:51:59.164Z,99.90
2023-05-05T05:53:00.919Z,99.90
2023-05-05T05:54:02.752Z,99.90
2023-05-05T05:55:05.537Z,99.90
2023-05-05T05:56:07.603Z,99.90
2023-05-05T05:57:09.456Z,99.90
2023-05-05T05:58:11.225Z,99.90
2023-05-05T05:59:13.050Z,99.90
2023-05-05T06:00:15.961Z,99.90
2023-05-05T06:01:17.764Z,99.90
2023-05-05T06:02:20.834Z,99.90
2023-05-05T06:03:22.790Z,99.90
2023-05-05T06:04:24.731Z,99.90
2023-05-05T06:05:27.006Z,99.90
2023-05-05T06:06:28.887Z,99.90
2023-05-05T06:07:30.720Z,99.90
2023-05-05T06:08:32.472Z,99.90
2023-05-05T06:09:34.221Z,99.90
2023-05-05T06:10:35.984Z,99.90
2023-05-05T06:11:37.850Z,99.90
2023-05-05T06:12:39.615Z,99.90
2023-05-05T06:13:41.993Z,99.90
2023-05-05T06:14:43.889Z,99.90
2023-05-05T06:15:46.191Z,99.90
2023-05-05T06:16:48.043Z,99.90
2023-05-05T06:17:49.841Z,99.90
2023-05-05T06:18:51.737Z,99.90
2023-05-05T06:19:54.530Z,99.90
2023-05-05T06:20:56.433Z,99.90
2023-05-05T06:21:58.148Z,99.90
2023-05-05T06:23:00.604Z,99.90
2023-05-05T06:24:02.403Z,99.90
2023-05-05T06:25:06.662Z,99.90
2023-05-05T06:26:08.466Z,99.90
2023-05-05T06:27:10.173Z,99.80
2023-05-05T06:28:11.968Z,99.90
2023-05-05T06:29:13.778Z,99.80
2023-05-05T06:30:15.635Z,99.90
2023-05-05T06:31:17.535Z,99.50
2023-05-05T06:32:20.284Z,99.20
2023-05-05T06:33:22.064Z,99.10
2023-05-05T06:34:23.852Z,99.20
2023-05-05T06:35:25.704Z,99.70
2023-05-05T06:36:28.154Z,99.20
2023-05-05T06:37:29.906Z,98.70
2023-05-05T06:38:31.641Z,99.10
2023-05-05T06:39:33.408Z,99.20
2023-05-05T06:40:35.287Z,99.10
2023-05-05T06:41:37.074Z,98.40
2023-05-05T06:42:38.828Z,98.50
2023-05-05T06:43:42.935Z,98.10
2023-05-05T06:44:44.704Z,97.60
2023-05-05T06:45:46.464Z,97.10
2023-05-05T06:46:48.277Z,97.40
2023-05-05T06:47:57.629Z,97.10
2023-05-05T06:48:59.424Z,97.40
2023-05-05T06:50:01.174Z,96.90
2023-05-05T06:51:03.565Z,97.00
2023-05-05T06:52:05.421Z,96.50
2023-05-05T06:53:07.169Z,96.90
2023-05-05T06:54:08.869Z,96.60
2023-05-05T06:55:10.623Z,96.60
2023-05-05T06:56:12.453Z,96.30
2023-05-05T06:57:14.246Z,96.40
2023-05-05T06:58:16.191Z,96.30
2023-05-05T06:59:18.468Z,95.90
2023-05-05T07:00:20.658Z,95.40
2023-05-05T07:01:22.502Z,96.00
2023-05-05T07:02:26.693Z,96.40
2023-05-05T07:03:28.816Z,96.10
2023-05-05T07:04:30.577Z,95.20
2023-05-05T07:05:32.489Z,95.20
2023-05-05T07:06:34.275Z,95.70
2023-05-05T07:07:36.498Z,95.30
2023-05-05T07:08:38.292Z,95.20
2023-05-05T07:09:41.257Z,95.40
2023-05-05T07:10:43.112Z,95.40
2023-05-05T07:11:46.377Z,95.10
2023-05-05T07:12:48.978Z,94.40
2023-05-05T07:13:50.940Z,95.10
2023-05-05T07:14:52.701Z,94.70
2023-05-05T07:15:54.598Z,94.50
2023-05-05T07:16:56.391Z,93.50
2023-05-05T07:17:58.515Z,93.40
2023-05-05T07:19:00.965Z,93.30
2023-05-05T07:20:03.034Z,93.60
2023-05-05T07:21:06.552Z,93.60
2023-05-05T07:22:08.289Z,93.40
2023-05-05T07:23:11.241Z,93.10
2023-05-05T07:24:13.023Z,92.90
2023-05-05T07:25:14.777Z,92.60
2023-05-05T07:26:16.657Z,92.80
2023-05-05T07:27:18.459Z,94.10
2023-05-05T07:28:21.975Z,93.80
2023-05-05T07:29:23.737Z,92.40
2023-05-05T07:30:26.626Z,91.50
2023-05-05T07:31:28.466Z,91.80
2023-05-05T07:32:30.582Z,91.20
2023-05-05T07:33:32.299Z,91.10
2023-05-05T07:34:34.608Z,89.90
2023-05-05T07:35:36.525Z,89.00
2023-05-05T07:36:38.458Z,89.00
2023-05-05T07:37:40.202Z,88.80
2023-05-05T07:38:42.057Z,89.50
2023-05-05T07:39:43.812Z,89.70
2023-05-05T07:40:45.741Z,87.10
2023-05-05T07:41:47.552Z,88.10
2023-05-05T07:42:49.346Z,88.60
2023-05-05T07:43:51.106Z,86.70
2023-05-05T07:44:52.947Z,88.60
2023-05-05T07:45:54.812Z,88.50
2023-05-05T07:46:56.582Z,86.10
2023-05-05T07:47:58.631Z,86.10
2023-05-05T07:49:01.392Z,84.60
2023-05-05T07:50:03.250Z,85.90
2023-05-05T07:51:05.096Z,85.40
2023-05-05T07:52:06.964Z,85.80
2023-05-05T07:53:14.318Z,84.40
2023-05-05T07:54:17.678Z,81.10
2023-05-05T07:55:19.603Z,81.10
2023-05-05T07:56:21.911Z,79.50
2023-05-05T07:57:23.785Z,81.20
2023-05-05T07:58:25.682Z,80.90
2023-05-05T07:59:27.430Z,81.60
2023-05-05T08:00:29.330Z,80.40
2023-05-05T08:01:31.200Z,79.50
2023-05-05T08:02:33.386Z,78.40
2023-05-05T08:03:35.361Z,80.20
2023-05-05T08:04:37.311Z,78.80
2023-05-05T08:05:39.239Z,77.70
2023-05-05T08:06:41.063Z,76.80
2023-05-05T08:07:43.076Z,78.20
2023-05-05T08:08:44.835Z,77.80
2023-05-05T08:09:46.572Z,76.80
2023-05-05T08:10:48.568Z,71.90
2023-05-05T08:11:50.803Z,75.50
2023-05-05T08:12:54.347Z,73.60
2023-05-05T08:13:56.468Z,70.80
2023-05-05T08:14:58.236Z,68.30
2023-05-05T08:16:00.319Z,69.00
2023-05-05T08:17:02.154Z,68.80
2023-05-05T08:18:04.002Z,66.90
2023-05-05T08:19:12.061Z,66.00
2023-05-05T08:20:28.100Z,67.50
2023-05-05T08:21:29.895Z,66.00
2023-05-05T08:22:31.656Z,67.10
2023-05-05T08:23:34.313Z,66.00
2023-05-05T08:24:36.180Z,67.30
2023-05-05T08:25:37.972Z,64.80
2023-05-05T08:26:39.802Z,60.80
2023-05-05T08:27:43.189Z,61.30
2023-05-05T08:28:44.966Z,62.80
2023-05-05T08:29:47.754Z,62.00
2023-05-05T08:30:50.716Z,60.00
2023-05-05T08:31:52.551Z,58.00
2023-05-05T08:32:55.150Z,59.60
2023-05-05T08:33:57.016Z,59.60
2023-05-05T08:34:58.957Z,60.10
2023-05-05T08:36:00.800Z,57.90
2023-05-05T08:37:02.578Z,58.20
2023-05-05T08:38:04.365Z,57.20
2023-05-05T08:39:07.081Z,57.80
2023-05-05T08:40:14.046Z,58.00
2023-05-05T08:41:19.911Z,57.40
2023-05-05T08:42:35.555Z,57.50
2023-05-05T08:43:39.643Z,55.80
2023-05-05T08:44:44.043Z,56.20
2023-05-05T08:45:46.259Z,56.00
2023-05-05T08:46:50.329Z,57.60
2023-05-05T08:47:52.088Z,54.20
2023-05-05T08:48:55.604Z,53.70
2023-05-05T08:49:59.963Z,52.40
2023-05-05T08:51:05.517Z,52.90
2023-05-05T08:52:11.628Z,53.70
2023-05-05T08:53:17.970Z,52.70
2023-05-05T08:54:24.122Z,51.80
2023-05-05T08:55:29.143Z,52.10
2023-05-05T08:56:39.454Z,50.80
2023-05-05T08:58:08.085Z,48.90
2023-05-05T08:59:14.670Z,49.60
2023-05-05T09:00:18.757Z,50.60
2023-05-05T09:01:21.983Z,50.70
2023-05-05T09:02:28.427Z,48.90
2023-05-05T09:03:32.138Z,49.30
2023-05-05T09:04:34.894Z,49.00
2023-05-05T09:05:37.045Z,48.10
2023-05-05T09:06:38.913Z,47.50
2023-05-05T09:07:44.206Z,48.00
2023-05-05T09:08:47.031Z,48.20
2023-05-05T09:09:50.408Z,48.40
2023-05-05T09:10:52.538Z,49.30
2023-05-05T09:11:55.953Z,48.00
2023-05-05T09:12:57.897Z,46.00
2023-05-05T09:13:59.802Z,45.70
2023-05-05T09:15:04.416Z,45.00
2023-05-05T09:16:06.884Z,46.50
2023-05-05T09:17:25.260Z,47.70
2023-05-05T09:18:27.208Z,47.00
2023-05-05T09:19:29.060Z,47.00
2023-05-05T09:20:39.768Z,47.40
2023-05-05T09:21:50.266Z,44.60
2023-05-05T09:22:53.178Z,45.30
2023-05-05T09:24:15.537Z,44.50
2023-05-05T09:25:18.349Z,45.50
2023-05-05T09:26:20.091Z,45.40
2023-05-05T09:27:23.549Z,44.70
2023-05-05T09:28:25.987Z,45.10
2023-05-05T09:29:27.763Z,44.10
2023-05-05T09:30:29.628Z,43.60
2023-05-05T09:31:32.993Z,43.20
2023-05-05T09:32:51.827Z,42.70
2023-05-05T09:33:53.620Z,44.00
2023-05-05T09:35:01.759Z,45.20
2023-05-05T09:36:03.656Z,41.10
2023-05-05T09:37:06.138Z,40.30
2023-05-05T09:38:12.326Z,40.30
2023-05-05T09:39:16.970Z,40.70
2023-05-05T09:40:20.489Z,40.00
2023-05-05T09:41:37.541Z,38.90
2023-05-05T09:42:40.525Z,39.60
2023-05-05T09:43:52.414Z,40.80
2023-05-05T09:44:54.581Z,40.80
2023-05-05T09:46:08.467Z,39.90
2023-05-05T09:47:26.001Z,39.30
2023-05-05T09:48:32.173Z,40.40
2023-05-05T09:49:34.146Z,39.10
2023-05-05T09:50:45.659Z,37.80
2023-05-05T09:51:48.139Z,38.40
2023-05-05T09:52:57.765Z,38.40
2023-05-05T09:53:59.530Z,37.60
2023-05-05T09:55:01.334Z,38.10
2023-05-05T09:56:03.126Z,39.30
2023-05-05T09:57:04.887Z,38.70
2023-05-05T09:58:21.344Z,38.40
2023-05-05T09:59:24.100Z,38.80
2023-05-05T10:00:39.219Z,39.80
2023-05-05T10:01:43.392Z,40.50
2023-05-05T10:02:45.721Z,40.00
2023-05-05T10:03:54.020Z,39.10
2023-05-05T10:05:11.458Z,39.00
2023-05-05T10:06:13.256Z,38.90
2023-05-05T10:07:27.405Z,38.60
2023-05-05T10:08:31.370Z,38.90
2023-05-05T10:09:33.200Z,39.60
2023-05-05T10:10:35.396Z,39.00
2023-05-05T10:11:37.292Z,41.00
2023-05-05T10:12:40.327Z,40.70
2023-05-05T10:13:43.097Z,40.60
2023-05-05T10:14:44.999Z,41.00
2023-05-05T10:15:52.412Z,40.90
2023-05-05T10:16:55.635Z,40.20
2023-05-05T10:18:07.500Z,40.30
2023-05-05T10:19:14.249Z,40.00
2023-05-05T10:20:16.221Z,39.90
2023-05-05T10:21:21.631Z,39.20
2023-05-05T10:22:24.123Z,39.10
2023-05-05T10:23:53.578Z,39.60
2023-05-05T10:25:03.602Z,39.20
2023-05-05T10:26:10.301Z,39.10
2023-05-05T10:27:20.996Z,39.70
2023-05-05T10:28:42.112Z,39.70
2023-05-05T10:29:46.758Z,40.10
2023-05-05T10:30:51.267Z,39.70
2023-05-05T10:31:58.569Z,39.40
2023-05-05T10:33:18.538Z,39.80
2023-05-05T10:34:49.723Z,40.20
2023-05-05T10:35:57.239Z,40.50
2023-05-05T10:37:00.219Z,40.40
2023-05-05T10:38:03.657Z,41.00
2023-05-05T10:39:10.762Z,39.10
2023-05-05T10:40:13.807Z,39.30
2023-05-05T10:41:18.438Z,40.20
2023-05-05T10:42:21.092Z,39.10
2023-05-05T10:43:24.471Z,39.00
2023-05-05T10:44:27.714Z,38.20
2023-05-05T10:45:30.662Z,37.70
2023-05-05T10:46:32.822Z,37.80
2023-05-05T10:47:36.637Z,38.70
2023-05-05T10:48:46.913Z,38.40
2023-05-05T10:49:56.950Z,38.50
2023-05-05T10:51:31.020Z,38.40
2023-05-05T10:53:08.656Z,40.60
2023-05-05T10:54:38.175Z,39.20
2023-05-05T10:56:02.699Z,39.50
2023-05-05T10:57:08.188Z,38.40
2023-05-05T10:58:51.208Z,37.40
2023-05-05T10:59:57.775Z,37.90
2023-05-05T11:00:59.791Z,37.80
2023-05-05T11:02:01.629Z,37.80
2023-05-05T11:03:20.168Z,36.90
2023-05-05T11:04:23.768Z,36.60
2023-05-05T11:05:25.537Z,36.20
2023-05-05T11:06:28.657Z,36.50
2023-05-05T11:07:30.729Z,36.30
2023-05-05T11:08:33.980Z,36.50
2023-05-05T11:09:53.689Z,36.40
2023-05-05T11:10:55.631Z,36.10
2023-05-05T11:12:07.073Z,36.60
2023-05-05T11:13:08.913Z,36.80
2023-05-05T11:14:22.297Z,37.30
2023-05-05T11:15:27.176Z,37.70
2023-05-05T11:16:50.168Z,37.20
2023-05-05T11:17:59.646Z,37.30
2023-05-05T11:19:01.446Z,36.50
2023-05-05T11:20:03.247Z,36.10
2023-05-05T11:21:15.723Z,36.10
2023-05-05T11:22:17.754Z,36.30
2023-05-05T11:23:19.967Z,37.20
2023-05-05T11:24:31.256Z,37.00
2023-05-05T11:25:43.291Z,36.30
2023-05-05T11:26:51.259Z,37.60
2023-05-05T11:28:21.131Z,37.60
2023-05-05T11:29:22.872Z,37.50
2023-05-05T11:30:24.692Z,37.60
2023-05-05T11:31:26.878Z,37.80
2023-05-05T11:32:28.706Z,37.70
2023-05-05T11:33:40.490Z,37.50
2023-05-05T11:34:49.863Z,38.70
2023-05-05T11:36:12.102Z,37.20
2023-05-05T11:37:15.402Z,37.30
2023-05-05T11:38:20.098Z,37.50
2023-05-05T11:40:00.417Z,37.20
2023-05-05T11:41:26.704Z,38.00
2023-05-05T11:42:30.046Z,37.00
2023-05-05T11:43:31.839Z,36.50
2023-05-05T11:44:35.727Z,37.10
2023-05-05T11:45:37.527Z,37.70
2023-05-05T11:46:51.584Z,37.80
2023-05-05T11:48:13.376Z,37.50
2023-05-05T11:49:26.205Z,37.50
2023-05-05T11:50:28.059Z,37.10
2023-05-05T11:51:30.868Z,36.50
2023-05-05T11:52:34.583Z,37.30
2023-05-05T11:53:36.731Z,37.10
2023-05-05T11:54:50.036Z,37.50
2023-05-05T11:56:06.779Z,37.70
2023-05-05T11:57:09.272Z,37.00
2023-05-05T11:58:21.239Z,37.40
2023-05-05T11:59:23.240Z,36.70
2023-05-05T12:00:34.180Z,36.70
2023-05-05T12:01:40.921Z,37.50
2023-05-05T12:02:42.908Z,37.60
2023-05-05T12:03:45.650Z,37.80
2023-05-05T12:04:48.686Z,38.50
2023-05-05T12:05:54.798Z,37.80
2023-05-05T12:06:58.038Z,36.20
2023-05-05T12:07:59.932Z,35.80
2023-05-05T12:09:02.135Z,37.00
2023-05-05T12:10:04.284Z,36.70
2023-05-05T12:11:08.602Z,37.50
2023-05-05T12:12:10.501Z,37.20
2023-05-05T12:13:21.486Z,36.30
2023-05-05T12:14:25.038Z,36.20
2023-05-05T12:15:31.153Z,36.80
2023-05-05T12:16:33.007Z,36.80
2023-05-05T12:17:44.887Z,37.40
2023-05-05T12:18:46.832Z,37.00
2023-05-05T12:19:57.418Z,37.10
2023-05-05T12:20:59.209Z,37.40
2023-05-05T12:22:02.085Z,36.80
2023-05-05T12:23:04.132Z,37.10
2023-05-05T12:24:06.578Z,36.00
2023-05-05T12:25:09.441Z,35.70
2023-05-05T12:26:31.467Z,35.10
2023-05-05T12:27:33.637Z,34.80
2023-05-05T12:28:48.530Z,36.00
2023-05-05T12:29:51.269Z,35.80
2023-05-05T12:30:59.462Z,36.30
2023-05-05T12:32:01.439Z,36.80
2023-05-05T12:33:08.092Z,36.80
2023-05-05T12:34:11.170Z,36.40
2023-05-05T12:35:13.833Z,36.80
2023-05-05T12:36:16.390Z,36.50
2023-05-05T12:37:19.091Z,36.40
2023-05-05T12:38:21.246Z,36.40
2023-05-05T12:39:22.993Z,37.10
2023-05-05T12:40:43.777Z,37.00
2023-05-05T12:41:45.892Z,37.00
2023-05-05T12:42:47.725Z,37.50
2023-05-05T12:43:56.164Z,37.70
2023-05-05T12:44:57.975Z,37.00
2023-05-05T12:46:03.910Z,37.90
2023-05-05T12:47:06.166Z,37.50
2023-05-05T12:48:23.403Z,37.30
2023-05-05T12:49:25.248Z,37.80
2023-05-05T12:50:31.681Z,38.30
2023-05-05T12:51:35.017Z,37.30
2023-05-05T12:52:44.519Z,37.60
2023-05-05T12:53:47.920Z,37.40
2023-05-05T12:54:57.756Z,37.50
2023-05-05T12:55:59.549Z,36.40
2023-05-05T12:57:11.321Z,36.70
2023-05-05T12:58:13.045Z,38.10
2023-05-05T12:59:24.156Z,36.50
2023-05-05T13:00:26.459Z,36.20
2023-05-05T13:01:29.679Z,36.20
2023-05-05T13:02:35.125Z,35.90
2023-05-05T13:03:36.982Z,35.60
2023-05-05T13:04:52.979Z,36.50
2023-05-05T13:05:54.756Z,35.90
2023-05-05T13:07:12.966Z,36.50
2023-05-05T13:08:14.749Z,36.10
2023-05-05T13:09:25.743Z,35.60
2023-05-05T13:10:28.353Z,35.50
2023-05-05T13:11:30.200Z,36.30
2023-05-05T13:12:31.945Z,36.70
2023-05-05T13:13:33.797Z,36.60
2023-05-05T13:14:36.372Z,36.60
2023-05-05T13:15:38.146Z,36.60
2023-05-05T13:16:39.958Z,36.50
2023-05-05T13:17:41.785Z,36.90
2023-05-05T13:18:45.158Z,35.40
2023-05-05T13:19:47.018Z,36.30
2023-05-05T13:20:48.836Z,36.40
2023-05-05T13:21:51.864Z,36.80
2023-05-05T13:22:53.720Z,35.90
2023-05-05T13:24:04.940Z,36.20
2023-05-05T13:25:14.179Z,35.60
2023-05-05T13:26:15.938Z,35.90
2023-05-05T13:27:17.745Z,35.80
2023-05-05T13:28:19.479Z,34.90
2023-05-05T13:29:21.300Z,35.60
2023-05-05T13:30:23.148Z,35.40
2023-05-05T13:31:25.014Z,36.00
2023-05-05T13:32:26.998Z,36.40
2023-05-05T13:33:28.723Z,36.80
2023-05-05T13:34:30.624Z,36.60
2023-05-05T13:35:33.229Z,36.10
2023-05-05T13:36:35.475Z,35.20
2023-05-05T13:37:37.169Z,35.50
2023-05-05T13:38:39.006Z,35.00
2023-05-05T13:39:40.812Z,35.60
2023-05-05T13:40:42.574Z,35.30
2023-05-05T13:41:45.265Z,34.90
2023-05-05T13:42:47.058Z,35.30
2023-05-05T13:43:49.279Z,36.00
2023-05-05T13:44:51.269Z,35.80
2023-05-05T13:46:02.952Z,35.80
2023-05-05T13:47:10.671Z,36.40
2023-05-05T13:48:12.469Z,36.10
2023-05-05T13:49:14.315Z,36.70
2023-05-05T13:50:16.092Z,36.30
2023-05-05T13:51:17.829Z,36.70
2023-05-05T13:52:20.096Z,36.30
2023-05-05T13:53:21.834Z,36.90
2023-05-05T13:54:23.577Z,36.90
2023-05-05T13:55:25.611Z,36.70
2023-05-05T13:56:28.059Z,36.60
2023-05-05T13:57:29.784Z,36.30
2023-05-05T13:58:31.776Z,36.50